createdAt,value
2023-04-26T00:00:10.062Z,10.02
2023-04-26T00:02:38.729Z,9.55
2023-04-26T00:05:09.505Z,14.52
2023-04-26T00:07:39.404Z,11.43
2023-04-26T00:10:09.602Z,13.18
2023-04-26T00:12:38.268Z,7.35
2023-04-26T00:15:08.079Z,7.43
2023-04-26T00:17:36.495Z,9.65
2023-04-26T00:20:08.602Z,9.88
2023-04-26T00:22:36.966Z,10.98
2023-04-26T00:25:07.938Z,9.30
2023-04-26T00:27:36.430Z,5.30
2023-04-26T00:30:05.856Z,7.45
2023-04-26T00:32:35.542Z,11.20
2023-04-26T00:35:05.502Z,10.35
2023-04-26T00:37:34.028Z,16.83
2023-04-26T00:40:02.466Z,8.75
2023-04-26T00:42:32.172Z,11.98
2023-04-26T00:45:00.727Z,9.40
2023-04-26T00:47:31.998Z,9.18
2023-04-26T00:50:01.963Z,9.43
2023-04-26T00:52:30.913Z,11.27
2023-04-26T00:54:59.810Z,8.13
2023-04-26T00:57:28.139Z,9.20
2023-04-26T00:59:57.845Z,10.63
2023-04-26T01:02:26.843Z,5.95
2023-04-26T01:04:55.937Z,8.25
2023-04-26T01:07:24.802Z,7.88
2023-04-26T01:09:53.717Z,8.70
2023-04-26T01:12:23.359Z,7.43
2023-04-26T01:14:51.788Z,6.80
2023-04-26T01:17:21.556Z,5.78
2023-04-26T01:19:50.192Z,9.05
2023-04-26T01:22:18.767Z,10.10
2023-04-26T01:24:53.029Z,10.20
2023-04-26T01:27:21.455Z,11.30
2023-04-26T01:29:49.819Z,11.23
2023-04-26T01:32:18.214Z,10.43
2023-04-26T01:34:46.711Z,8.93
2023-04-26T01:37:15.056Z,11.15
2023-04-26T01:39:47.728Z,8.75
2023-04-26T01:42:16.059Z,7.80
2023-04-26T01:44:44.413Z,6.80
2023-04-26T01:47:12.737Z,7.07
2023-04-26T01:49:41.719Z,8.60
2023-04-26T01:52:10.121Z,8.02
2023-04-26T01:54:38.496Z,9.45
2023-04-26T01:57:08.202Z,13.88
2023-04-26T01:59:36.590Z,14.50
2023-04-26T02:02:05.494Z,8.27
2023-04-26T02:04:34.030Z,13.02
2023-04-26T02:07:02.547Z,6.75
2023-04-26T02:09:30.805Z,8.77
2023-04-26T02:11:59.188Z,6.65
2023-04-26T02:14:28.901Z,9.93
2023-04-26T02:16:57.680Z,7.45
2023-04-26T02:19:25.983Z,9.55
2023-04-26T02:21:58.848Z,9.85
2023-04-26T02:24:27.528Z,10.48
2023-04-26T02:26:56.523Z,7.90
2023-04-26T02:29:42.335Z,10.13
2023-04-26T02:32:13.188Z,7.97
2023-04-26T02:34:41.790Z,8.50
2023-04-26T02:37:10.178Z,10.52
2023-04-26T02:39:38.542Z,9.18
2023-04-26T02:42:11.121Z,6.20
2023-04-26T02:44:40.099Z,6.25
2023-04-26T02:47:08.885Z,11.27
2023-04-26T02:49:38.719Z,7.95
2023-04-26T02:52:07.328Z,7.20
2023-04-26T02:54:35.640Z,10.40
2023-04-26T02:57:03.903Z,11.60
2023-04-26T02:59:32.545Z,6.70
2023-04-26T03:02:00.924Z,8.30
2023-04-26T03:04:30.274Z,7.78
2023-04-26T03:07:00.205Z,8.65
2023-04-26T03:09:28.485Z,11.60
2023-04-26T03:11:56.887Z,8.80
2023-04-26T03:14:25.284Z,7.13
2023-04-26T03:19:22.000Z,6.38
2023-04-26T03:21:50.339Z,8.93
2023-04-26T03:24:20.161Z,10.07
2023-04-26T03:26:50.722Z,8.18
2023-04-26T03:29:19.242Z,9.50
2023-04-26T03:31:50.531Z,11.25
2023-04-26T03:34:18.853Z,8.65
2023-04-26T03:36:47.137Z,11.43
2023-04-26T03:39:16.955Z,7.25
2023-04-26T03:41:49.016Z,9.40
2023-04-26T03:44:17.387Z,7.10
2023-04-26T03:46:45.658Z,9.52
2023-04-26T03:49:13.934Z,10.43
2023-04-26T03:51:42.271Z,10.55
2023-04-26T03:54:11.170Z,11.38
2023-04-26T03:56:40.180Z,9.77
2023-04-26T03:59:10.292Z,13.45
2023-04-26T04:01:38.666Z,12.20
2023-04-26T04:04:07.270Z,9.52
2023-04-26T04:06:35.791Z,8.25
2023-04-26T04:09:05.502Z,10.15
2023-04-26T04:11:34.726Z,9.60
2023-04-26T04:14:03.128Z,10.13
2023-04-26T04:16:32.844Z,8.85
2023-04-26T04:19:01.232Z,15.18
2023-04-26T04:21:29.632Z,12.50
2023-04-26T04:23:57.884Z,13.57
2023-04-26T04:26:26.436Z,14.02
2023-04-26T04:28:55.247Z,16.17
2023-04-26T04:31:23.775Z,13.77
2023-04-26T04:33:53.428Z,14.20
2023-04-26T04:36:21.793Z,14.45
2023-04-26T04:38:50.460Z,11.68
2023-04-26T04:41:20.362Z,12.43
2023-04-26T04:43:48.894Z,12.38
2023-04-26T04:46:17.330Z,11.25
2023-04-26T04:48:45.693Z,13.25
2023-04-26T04:51:15.407Z,13.10
2023-04-26T04:53:43.698Z,13.15
2023-04-26T04:56:12.075Z,12.02
2023-04-26T04:58:40.425Z,19.02
2023-04-26T05:01:08.753Z,14.40
2023-04-26T05:03:37.277Z,12.65
2023-04-26T05:06:06.912Z,15.93
2023-04-26T05:08:36.736Z,17.00
2023-04-26T05:11:05.052Z,14.77
2023-04-26T05:13:33.352Z,15.45
2023-04-26T05:16:01.978Z,15.07
2023-04-26T05:18:30.460Z,15.65
2023-04-26T05:20:59.693Z,20.25
2023-04-26T05:23:28.006Z,15.18
2023-04-26T05:25:57.764Z,14.50
2023-04-26T05:28:26.210Z,20.55
2023-04-26T05:30:55.916Z,20.00
2023-04-26T05:33:24.509Z,18.52
2023-04-26T05:35:54.158Z,17.42
2023-04-26T05:38:23.076Z,16.85
2023-04-26T05:40:51.532Z,14.98
2023-04-26T05:43:21.494Z,12.80
2023-04-26T05:45:53.188Z,13.63
2023-04-26T05:48:23.299Z,15.90
2023-04-26T05:50:52.662Z,18.70
2023-04-26T05:53:21.640Z,15.15
2023-04-26T05:55:50.270Z,11.82
2023-04-26T05:58:20.197Z,14.20
2023-04-26T06:00:49.011Z,10.88
2023-04-26T06:03:17.797Z,17.77
2023-04-26T06:05:49.080Z,13.63
2023-04-26T06:08:17.756Z,12.02
2023-04-26T06:10:47.174Z,12.80
2023-04-26T06:13:15.547Z,17.10
2023-04-26T06:15:45.503Z,14.25
2023-04-26T06:18:13.980Z,14.77
2023-04-26T06:20:42.810Z,20.75
2023-04-26T06:23:11.161Z,18.42
2023-04-26T06:25:44.127Z,13.70
2023-04-26T06:28:13.467Z,17.02
2023-04-26T06:30:41.947Z,19.98
2023-04-26T06:33:11.722Z,19.98
2023-04-26T06:35:42.046Z,16.95
2023-04-26T06:38:12.779Z,21.30
2023-04-26T06:40:41.369Z,22.88
2023-04-26T06:43:09.761Z,20.15
2023-04-26T06:45:38.071Z,24.10
2023-04-26T06:48:07.217Z,18.75
2023-04-26T06:50:40.131Z,14.05
2023-04-26T06:53:08.918Z,13.95
2023-04-26T06:55:37.229Z,9.02
2023-04-26T06:58:06.130Z,9.25
2023-04-26T07:00:34.599Z,15.68
2023-04-26T07:03:03.131Z,9.63
2023-04-26T07:05:31.744Z,9.50
2023-04-26T07:08:01.993Z,8.23
2023-04-26T07:10:30.367Z,11.43
2023-04-26T07:12:58.745Z,6.30
2023-04-26T07:15:27.297Z,7.13
2023-04-26T07:17:55.753Z,6.38
2023-04-26T07:20:24.335Z,11.93
2023-04-26T07:22:52.812Z,6.63
2023-04-26T07:25:22.518Z,8.75
2023-04-26T07:27:52.196Z,10.38
2023-04-26T07:30:20.500Z,7.03
2023-04-26T07:32:53.282Z,7.97
2023-04-26T07:35:21.775Z,8.95
2023-04-26T07:37:50.077Z,6.90
2023-04-26T07:40:18.866Z,8.20
2023-04-26T07:42:48.915Z,6.90
2023-04-26T07:45:17.596Z,11.07
2023-04-26T07:47:46.329Z,8.20
2023-04-26T07:50:15.145Z,8.60
2023-04-26T07:52:44.621Z,10.63
2023-04-26T07:55:13.052Z,3.42
2023-04-26T07:57:41.765Z,6.80
2023-04-26T08:00:13.681Z,9.05
2023-04-26T08:02:44.638Z,6.57
2023-04-26T08:05:14.366Z,7.97
2023-04-26T08:07:44.293Z,7.93
2023-04-26T08:10:13.076Z,5.70
2023-04-26T08:12:41.707Z,4.78
2023-04-26T08:15:13.450Z,8.60
2023-04-26T08:17:42.074Z,5.65
2023-04-26T08:20:11.620Z,4.32
2023-04-26T08:22:39.960Z,8.45
2023-04-26T08:25:11.458Z,5.43
2023-04-26T08:27:39.944Z,10.75
2023-04-26T08:30:09.597Z,5.18
2023-04-26T08:32:39.338Z,10.70
2023-04-26T08:35:09.649Z,6.05
2023-04-26T08:37:38.031Z,8.18
2023-04-26T08:40:10.116Z,6.38
2023-04-26T08:42:44.114Z,8.82
2023-04-26T08:45:12.656Z,5.43
2023-04-26T08:47:48.776Z,6.35
2023-04-26T08:50:21.063Z,5.30
2023-04-26T08:52:51.689Z,3.72
2023-04-26T08:55:21.937Z,6.30
2023-04-26T08:57:51.501Z,8.88
2023-04-26T09:00:21.466Z,5.30
2023-04-26T09:02:53.778Z,10.18
2023-04-26T09:05:24.299Z,5.78
2023-04-26T09:07:55.596Z,7.80
2023-04-26T09:10:24.203Z,14.32
2023-04-26T09:12:54.357Z,5.78
2023-04-26T09:15:24.143Z,6.07
2023-04-26T09:17:54.927Z,5.53
2023-04-26T09:20:25.910Z,6.72
2023-04-26T09:22:56.304Z,7.22
2023-04-26T09:25:31.058Z,7.28
2023-04-26T09:28:00.984Z,9.38
2023-04-26T09:30:29.882Z,9.88
2023-04-26T09:33:03.951Z,6.05
2023-04-26T09:35:34.427Z,7.75
2023-04-26T09:38:10.986Z,11.02
2023-04-26T09:40:43.458Z,9.38
2023-04-26T09:43:14.279Z,7.22
2023-04-26T09:45:50.329Z,8.20
2023-04-26T09:48:23.673Z,8.63
2023-04-26T09:50:54.361Z,7.15
2023-04-26T09:53:32.369Z,7.70
2023-04-26T09:56:09.789Z,8.75
2023-04-26T09:58:40.987Z,7.78
2023-04-26T10:01:11.737Z,5.85
2023-04-26T10:03:43.255Z,6.15
2023-04-26T10:06:13.353Z,5.75
2023-04-26T10:08:42.053Z,7.97
2023-04-26T10:11:11.586Z,7.28
2023-04-26T10:13:41.952Z,5.97
2023-04-26T10:16:10.983Z,5.15
2023-04-26T10:18:39.589Z,8.32
2023-04-26T10:21:20.722Z,6.88
2023-04-26T10:23:50.648Z,6.25
2023-04-26T10:26:50.427Z,10.18
2023-04-26T10:29:19.088Z,6.22
2023-04-26T10:32:12.045Z,6.72
2023-04-26T10:34:40.641Z,7.30
2023-04-26T10:37:12.194Z,6.80
2023-04-26T10:39:41.372Z,8.20
2023-04-26T10:42:27.535Z,6.78
2023-04-26T10:44:57.443Z,8.32
2023-04-26T10:47:32.589Z,6.30
2023-04-26T10:50:08.959Z,5.38
2023-04-26T10:53:06.831Z,9.43
2023-04-26T10:55:43.010Z,6.65
2023-04-26T10:58:27.826Z,6.10
2023-04-26T11:01:10.796Z,5.50
2023-04-26T11:03:39.556Z,6.95
2023-04-26T11:06:09.968Z,7.80
2023-04-26T11:08:39.661Z,8.85
2023-04-26T11:11:10.210Z,6.32
2023-04-26T11:13:40.122Z,7.63
2023-04-26T11:16:10.247Z,6.65
2023-04-26T11:18:42.945Z,5.20
2023-04-26T11:21:12.875Z,5.57
2023-04-26T11:23:42.741Z,6.53
2023-04-26T11:26:11.372Z,7.13
2023-04-26T11:28:41.147Z,8.25
2023-04-26T11:31:09.649Z,6.35
2023-04-26T11:33:37.973Z,7.18
2023-04-26T11:36:07.269Z,7.00
2023-04-26T11:38:35.656Z,8.30
2023-04-26T11:41:06.003Z,6.18
2023-04-26T11:43:38.684Z,5.97
2023-04-26T11:46:09.991Z,7.20
2023-04-26T11:48:40.023Z,6.65
2023-04-26T11:51:10.569Z,8.70
2023-04-26T11:53:40.608Z,8.40
2023-04-26T11:56:20.673Z,7.57
2023-04-26T11:58:52.777Z,6.90
2023-04-26T12:01:27.301Z,10.30
2023-04-26T12:03:58.188Z,5.72
2023-04-26T12:06:43.006Z,9.75
2023-04-26T12:09:12.208Z,8.25
2023-04-26T12:11:42.276Z,7.22
2023-04-26T12:14:11.559Z,7.93
2023-04-26T12:16:39.978Z,5.47
2023-04-26T12:19:09.059Z,6.47
2023-04-26T12:21:42.673Z,7.82
2023-04-26T12:24:26.010Z,4.93
2023-04-26T12:26:55.925Z,9.00
2023-04-26T12:29:24.312Z,5.72
2023-04-26T12:31:52.728Z,7.32
2023-04-26T12:34:21.180Z,8.45
2023-04-26T12:36:49.844Z,8.00
2023-04-26T12:39:18.391Z,5.22
2023-04-26T12:41:47.609Z,10.70
2023-04-26T12:44:18.358Z,7.13
2023-04-26T12:46:51.362Z,10.70
2023-04-26T12:49:19.768Z,7.97
2023-04-26T12:51:48.398Z,9.23
2023-04-26T12:54:16.762Z,5.05
2023-04-26T12:56:45.989Z,11.80
2023-04-26T12:59:14.365Z,5.28
2023-04-26T13:01:44.082Z,8.20
2023-04-26T13:04:12.750Z,7.80
2023-04-26T13:06:41.181Z,7.57
2023-04-26T13:09:12.712Z,5.60
2023-04-26T13:11:41.159Z,7.75
2023-04-26T13:14:09.433Z,7.55
2023-04-26T13:16:42.357Z,7.30
2023-04-26T13:19:12.173Z,4.72
2023-04-26T13:21:42.103Z,7.85
2023-04-26T13:24:10.630Z,5.25
2023-04-26T13:26:38.976Z,13.25
2023-04-26T13:29:07.399Z,9.57
2023-04-26T13:31:36.921Z,6.47
2023-04-26T13:34:07.053Z,5.85
2023-04-26T13:36:36.984Z,9.73
2023-04-26T13:39:07.384Z,9.20
2023-04-26T13:41:35.823Z,6.57
2023-04-26T13:44:05.517Z,5.05
2023-04-26T13:46:33.826Z,8.00
2023-04-26T13:49:02.433Z,5.25
2023-04-26T13:51:32.420Z,6.32
2023-04-26T13:54:02.688Z,8.95
2023-04-26T13:56:30.997Z,6.28
2023-04-26T13:59:00.151Z,7.00
2023-04-26T14:01:29.226Z,6.68
2023-04-26T14:03:57.980Z,5.10
2023-04-26T14:06:27.052Z,7.97
2023-04-26T14:08:55.756Z,7.55
2023-04-26T14:11:25.694Z,11.40
2023-04-26T14:13:56.158Z,7.63
2023-04-26T14:16:24.950Z,5.15
2023-04-26T14:18:53.375Z,7.25
2023-04-26T14:21:21.981Z,7.18
2023-04-26T14:23:50.577Z,7.38
2023-04-26T14:26:20.349Z,5.90
2023-04-26T14:28:50.887Z,7.22
2023-04-26T14:31:19.922Z,6.70
2023-04-26T14:33:51.756Z,9.30
2023-04-26T14:36:20.593Z,6.93
2023-04-26T14:38:51.594Z,8.48
2023-04-26T14:41:21.717Z,7.57
2023-04-26T14:43:51.801Z,6.22
2023-04-26T14:46:20.546Z,5.90
2023-04-26T14:48:55.472Z,7.82
2023-04-26T14:51:24.115Z,9.82
2023-04-26T14:53:52.869Z,7.88
2023-04-26T14:56:21.447Z,6.30
2023-04-26T14:58:51.215Z,5.88
2023-04-26T15:01:19.759Z,4.85
2023-04-26T15:03:48.522Z,6.30
2023-04-26T15:06:21.999Z,11.10
2023-04-26T15:08:50.691Z,6.93
2023-04-26T15:11:24.407Z,7.18
2023-04-26T15:13:54.227Z,6.70
2023-04-26T15:16:22.978Z,13.20
2023-04-26T15:18:51.821Z,8.45
2023-04-26T15:21:20.850Z,7.90
2023-04-26T15:23:49.823Z,8.80
2023-04-26T15:26:18.614Z,7.80
2023-04-26T15:28:50.022Z,6.30
2023-04-26T15:31:21.908Z,7.32
2023-04-26T15:33:50.565Z,5.05
2023-04-26T15:36:20.422Z,9.30
2023-04-26T15:38:51.052Z,6.45
2023-04-26T15:41:21.760Z,5.40
2023-04-26T15:43:58.083Z,7.28
2023-04-26T15:46:28.275Z,7.97
2023-04-26T15:48:56.967Z,5.85
2023-04-26T15:51:25.744Z,6.82
2023-04-26T15:54:01.598Z,9.63
2023-04-26T15:56:31.503Z,10.38
2023-04-26T15:58:59.836Z,7.78
2023-04-26T16:01:30.245Z,6.93
2023-04-26T16:03:58.748Z,5.82
2023-04-26T16:06:28.550Z,6.20
2023-04-26T16:08:56.898Z,5.25
2023-04-26T16:11:26.422Z,7.15
2023-04-26T16:13:54.781Z,4.88
2023-04-26T16:16:23.129Z,6.25
2023-04-26T16:18:52.968Z,7.85
2023-04-26T16:21:21.316Z,6.43
2023-04-26T16:23:51.490Z,7.57
2023-04-26T16:26:20.139Z,6.40
2023-04-26T16:28:51.195Z,8.57
2023-04-26T16:31:19.949Z,8.77
2023-04-26T16:33:48.947Z,7.10
2023-04-26T16:36:18.661Z,8.20
2023-04-26T16:38:47.303Z,7.25
2023-04-26T16:41:18.300Z,5.28
2023-04-26T16:43:47.064Z,7.63
2023-04-26T16:46:15.423Z,10.25
2023-04-26T16:48:44.183Z,9.88
2023-04-26T16:51:12.506Z,7.45
2023-04-26T16:53:42.419Z,6.15
2023-04-26T16:56:11.995Z,7.18
2023-04-26T16:58:40.324Z,5.85
2023-04-26T17:01:09.057Z,8.18
2023-04-26T17:03:37.468Z,8.27
2023-04-26T17:06:07.815Z,7.63
2023-04-26T17:08:36.254Z,7.10
2023-04-26T17:11:06.399Z,8.55
2023-04-26T17:13:35.084Z,7.93
2023-04-26T17:16:05.693Z,3.88
2023-04-26T17:18:34.199Z,5.40
2023-04-26T17:21:03.727Z,7.88
2023-04-26T17:23:33.793Z,5.50
2023-04-26T17:26:02.968Z,5.57
2023-04-26T17:28:33.365Z,7.07
2023-04-26T17:31:01.990Z,8.93
2023-04-26T17:33:30.338Z,11.90
2023-04-26T17:35:58.670Z,6.43
2023-04-26T17:38:27.143Z,5.05
2023-04-26T17:40:55.968Z,13.82
2023-04-26T17:43:24.705Z,9.52
2023-04-26T17:45:54.826Z,7.35
2023-04-26T17:48:23.196Z,11.38
2023-04-26T17:50:52.995Z,8.13
2023-04-26T17:53:21.679Z,8.63
2023-04-26T17:55:51.036Z,10.18
2023-04-26T17:58:19.537Z,8.68
2023-04-26T18:00:49.415Z,9.70
2023-04-26T18:03:20.276Z,8.50
2023-04-26T18:05:49.214Z,8.18
2023-04-26T18:08:17.726Z,9.32
2023-04-26T18:10:49.276Z,8.00
2023-04-26T18:13:18.280Z,7.18
2023-04-26T18:15:46.928Z,10.38
2023-04-26T18:18:15.490Z,11.98
2023-04-26T18:20:47.785Z,9.02
2023-04-26T18:23:16.402Z,9.73
2023-04-26T18:25:48.069Z,12.15
2023-04-26T18:28:16.393Z,11.57
2023-04-26T18:30:44.792Z,6.82
2023-04-26T18:33:13.448Z,12.10
2023-04-26T18:35:42.371Z,6.63
2023-04-26T18:38:12.097Z,9.65
2023-04-26T18:40:44.712Z,8.55
2023-04-26T18:43:13.543Z,8.02
2023-04-26T18:45:42.448Z,9.15
2023-04-26T18:48:11.915Z,9.38
2023-04-26T18:50:40.580Z,7.70
2023-04-26T18:53:08.925Z,8.15
2023-04-26T18:55:38.640Z,8.43
2023-04-26T18:58:07.060Z,10.32
2023-04-26T19:00:35.393Z,9.63
2023-04-26T19:03:04.162Z,8.00
2023-04-26T19:05:32.692Z,9.60
2023-04-26T19:08:01.868Z,10.52
2023-04-26T19:10:30.265Z,8.88
2023-04-26T19:12:59.954Z,10.07
2023-04-26T19:15:28.405Z,11.75
2023-04-26T19:17:57.147Z,12.65
2023-04-26T19:20:27.117Z,10.50
2023-04-26T19:22:55.727Z,8.05
2023-04-26T19:25:24.438Z,11.38
2023-04-26T19:27:52.749Z,9.80
2023-04-26T19:30:22.473Z,12.52
2023-04-26T19:32:51.030Z,9.52
2023-04-26T19:35:19.345Z,10.80
2023-04-26T19:37:47.890Z,10.60
2023-04-26T19:40:16.931Z,9.52
2023-04-26T19:42:45.508Z,7.15
2023-04-26T19:45:13.955Z,6.85
2023-04-26T19:47:44.217Z,10.02
2023-04-26T19:50:13.235Z,10.93
2023-04-26T19:52:41.797Z,8.25
2023-04-26T19:55:11.562Z,13.85
2023-04-26T19:57:39.868Z,10.70
2023-04-26T20:00:11.657Z,10.68
2023-04-26T20:02:40.171Z,9.65
2023-04-26T20:05:11.519Z,8.10
2023-04-26T20:07:39.856Z,9.55
2023-04-26T20:10:10.512Z,15.27
2023-04-26T20:12:38.855Z,12.05
2023-04-26T20:15:09.161Z,10.60
2023-04-26T20:17:37.550Z,15.73
2023-04-26T20:20:07.743Z,15.40
2023-04-26T20:22:37.650Z,12.27
2023-04-26T20:25:07.335Z,13.10
2023-04-26T20:27:35.946Z,6.68
2023-04-26T20:30:05.221Z,9.88
2023-04-26T20:32:33.638Z,11.73
2023-04-26T20:35:02.326Z,11.52
2023-04-26T20:37:30.728Z,10.85
2023-04-26T20:40:00.789Z,8.50
2023-04-26T20:42:29.284Z,10.45
2023-04-26T20:44:59.228Z,11.48
2023-04-26T20:47:29.052Z,14.25
2023-04-26T20:49:57.460Z,11.38
2023-04-26T20:52:25.804Z,11.60
2023-04-26T20:54:56.216Z,11.05
2023-04-26T20:57:25.980Z,14.57
2023-04-26T20:59:54.420Z,13.32
2023-04-26T21:02:27.137Z,14.40
2023-04-26T21:04:55.754Z,13.20
2023-04-26T21:07:24.145Z,15.00
2023-04-26T21:09:55.698Z,10.73
2023-04-26T21:12:25.853Z,14.45
2023-04-26T21:14:58.147Z,13.93
2023-04-26T21:17:26.419Z,9.27
2023-04-26T21:19:54.988Z,16.48
2023-04-26T21:22:23.313Z,10.73
2023-04-26T21:24:52.825Z,12.50
2023-04-26T21:27:23.102Z,13.02
2023-04-26T21:29:52.813Z,10.05
2023-04-26T21:32:21.202Z,13.80
2023-04-26T21:34:52.704Z,13.23
2023-04-26T21:37:21.053Z,14.85
2023-04-26T21:39:52.598Z,13.52
2023-04-26T21:42:21.372Z,8.48
2023-04-26T21:44:49.812Z,11.68
2023-04-26T21:47:20.002Z,11.50
2023-04-26T21:49:48.922Z,10.40
2023-04-26T21:52:17.335Z,9.60
2023-04-26T21:54:46.660Z,9.93
2023-04-26T21:57:15.018Z,15.80
2023-04-26T21:59:44.015Z,12.38
2023-04-26T22:02:12.400Z,10.95
2023-04-26T22:04:42.352Z,10.35
2023-04-26T22:07:10.778Z,11.73
2023-04-26T22:09:39.177Z,13.70
2023-04-26T22:12:07.958Z,13.32
2023-04-26T22:14:36.329Z,12.35
2023-04-26T22:17:04.696Z,8.73
2023-04-26T22:19:33.088Z,14.27
2023-04-26T22:22:03.204Z,14.73
2023-04-26T22:24:31.688Z,14.52
2023-04-26T22:26:59.982Z,15.35
2023-04-26T22:29:28.302Z,13.90
2023-04-26T22:31:56.741Z,14.60
2023-04-26T22:34:25.256Z,11.30
2023-04-26T22:36:53.516Z,15.85
2023-04-26T22:39:23.270Z,11.57
2023-04-26T22:41:51.659Z,10.23
2023-04-26T22:44:20.104Z,9.70
2023-04-26T22:46:48.837Z,12.88
2023-04-26T22:49:17.202Z,16.02
2023-04-26T22:51:57.414Z,13.32
2023-04-26T22:54:31.976Z,14.65
2023-04-26T22:57:00.278Z,13.30
2023-04-26T22:59:28.565Z,11.05
2023-04-26T23:01:56.886Z,9.70
2023-04-26T23:04:25.387Z,17.55
2023-04-26T23:06:54.039Z,12.93
2023-04-26T23:09:22.461Z,10.98
2023-04-26T23:11:52.445Z,10.65
2023-04-26T23:14:20.892Z,13.70
2023-04-26T23:16:49.357Z,12.65
2023-04-26T23:19:17.931Z,10.68
2023-04-26T23:21:46.566Z,11.15
2023-04-26T23:24:14.926Z,12.40
2023-04-26T23:26:43.471Z,11.70
2023-04-26T23:29:13.463Z,12.38
2023-04-26T23:31:42.190Z,17.48
2023-04-26T23:34:10.714Z,13.63
2023-04-26T23:36:39.087Z,12.52
2023-04-26T23:39:07.426Z,12.98
2023-04-26T23:41:35.900Z,15.23
2023-04-26T23:44:04.239Z,15.32
2023-04-26T23:46:34.066Z,11.35
2023-04-26T23:49:02.721Z,10.82
2023-04-26T23:51:31.375Z,11.38
2023-04-26T23:53:59.705Z,11.65
2023-04-26T23:56:28.018Z,11.68
2023-04-26T23:58:56.421Z,13.85
